sensor_id;sensor_type;location;lat;lon;timestamp;P1;durP1;ratioP1;P2;durP2;ratioP2
7957;SDS011;4024;52.172;5.378;2023-05-10T00:01:28;36.00;;;23.90;;
7957;SDS011;4024;52.172;5.378;2023-05-10T00:03:54;30.83;;;22.53;;
7957;SDS011;4024;52.172;5.378;2023-05-10T00:06:19;29.07;;;21.70;;
7957;SDS011;4024;52.172;5.378;2023-05-10T00:08:45;33.07;;;21.43;;
7957;SDS011;4024;52.172;5.378;2023-05-10T00:11:10;30.70;;;21.17;;
7957;SDS011;4024;52.172;5.378;2023-05-10T00:13:38;27.00;;;20.70;;
7957;SDS011;4024;52.172;5.378;2023-05-10T00:16:04;30.00;;;20.63;;
7957;SDS011;4024;52.172;5.378;2023-05-10T00:18:30;30.20;;;20.80;;
7957;SDS011;4024;52.172;5.378;2023-05-10T00:20:55;25.70;;;19.03;;
7957;SDS011;4024;52.172;5.378;2023-05-10T00:23:21;28.87;;;20.60;;
7957;SDS011;4024;52.172;5.378;2023-05-10T00:25:46;31.87;;;21.30;;
7957;SDS011;4024;52.172;5.378;2023-05-10T00:28:13;30.00;;;20.97;;
7957;SDS011;4024;52.172;5.378;2023-05-10T00:30:39;29.90;;;20.60;;
7957;SDS011;4024;52.172;5.378;2023-05-10T00:33:04;30.03;;;21.43;;
7957;SDS011;4024;52.172;5.378;2023-05-10T00:35:30;32.00;;;21.37;;
7957;SDS011;4024;52.172;5.378;2023-05-10T00:37:55;30.87;;;20.87;;
7957;SDS011;4024;52.172;5.378;2023-05-10T00:40:21;30.43;;;22.63;;
7957;SDS011;4024;52.172;5.378;2023-05-10T00:42:47;32.07;;;22.43;;
7957;SDS011;4024;52.172;5.378;2023-05-10T00:45:12;33.73;;;23.03;;
7957;SDS011;4024;52.172;5.378;2023-05-10T00:47:38;38.07;;;24.97;;
7957;SDS011;4024;52.172;5.378;2023-05-10T00:50:04;36.10;;;24.80;;
7957;SDS011;4024;52.172;5.378;2023-05-10T00:52:31;36.57;;;26.17;;
7957;SDS011;4024;52.172;5.378;2023-05-10T00:54:57;38.70;;;26.23;;
7957;SDS011;4024;52.172;5.378;2023-05-10T00:57:24;41.73;;;28.03;;
7957;SDS011;4024;52.172;5.378;2023-05-10T00:59:50;42.30;;;28.87;;
7957;SDS011;4024;52.172;5.378;2023-05-10T01:02:16;43.60;;;30.30;;
7957;SDS011;4024;52.172;5.378;2023-05-10T01:04:42;44.73;;;30.33;;
7957;SDS011;4024;52.172;5.378;2023-05-10T01:07:08;42.77;;;30.07;;
7957;SDS011;4024;52.172;5.378;2023-05-10T01:09:34;47.77;;;31.37;;
7957;SDS011;4024;52.172;5.378;2023-05-10T01:12:00;49.50;;;33.47;;
7957;SDS011;4024;52.172;5.378;2023-05-10T01:14:26;47.30;;;33.03;;
7957;SDS011;4024;52.172;5.378;2023-05-10T01:16:53;47.17;;;33.00;;
7957;SDS011;4024;52.172;5.378;2023-05-10T01:19:22;49.30;;;33.10;;
7957;SDS011;4024;52.172;5.378;2023-05-10T01:27:25;54.03;;;35.70;;
7957;SDS011;4024;52.172;5.378;2023-05-10T01:32:55;52.40;;;34.63;;
7957;SDS011;4024;52.172;5.378;2023-05-10T01:35:44;51.80;;;35.23;;
7957;SDS011;4024;52.172;5.378;2023-05-10T01:38:19;54.80;;;36.17;;
7957;SDS011;4024;52.172;5.378;2023-05-10T01:40:58;56.07;;;35.67;;
7957;SDS011;4024;52.172;5.378;2023-05-10T01:43:28;54.30;;;35.50;;
7957;SDS011;4024;52.172;5.378;2023-05-10T01:46:10;57.40;;;36.43;;
7957;SDS011;4024;52.172;5.378;2023-05-10T01:48:43;51.47;;;35.03;;
7957;SDS011;4024;52.172;5.378;2023-05-10T01:51:16;50.03;;;34.00;;
7957;SDS011;4024;52.172;5.378;2023-05-10T01:53:48;56.20;;;36.20;;
7957;SDS011;4024;52.172;5.378;2023-05-10T01:56:16;55.23;;;34.03;;
7957;SDS011;4024;52.172;5.378;2023-05-10T01:58:48;56.67;;;34.53;;
7957;SDS011;4024;52.172;5.378;2023-05-10T02:01:17;56.73;;;35.43;;
7957;SDS011;4024;52.172;5.378;2023-05-10T02:03:45;55.13;;;33.87;;
7957;SDS011;4024;52.172;5.378;2023-05-10T02:06:14;51.37;;;33.73;;
7957;SDS011;4024;52.172;5.378;2023-05-10T02:08:43;51.93;;;32.20;;
7957;SDS011;4024;52.172;5.378;2023-05-10T02:11:12;54.63;;;34.73;;
7957;SDS011;4024;52.172;5.378;2023-05-10T02:13:39;53.60;;;33.17;;
7957;SDS011;4024;52.172;5.378;2023-05-10T02:16:06;51.43;;;33.50;;
7957;SDS011;4024;52.172;5.378;2023-05-10T02:18:33;53.37;;;32.93;;
7957;SDS011;4024;52.172;5.378;2023-05-10T02:21:00;54.40;;;33.90;;
7957;SDS011;4024;52.172;5.378;2023-05-10T02:23:29;55.17;;;33.47;;
7957;SDS011;4024;52.172;5.378;2023-05-10T02:25:55;51.03;;;31.97;;
7957;SDS011;4024;52.172;5.378;2023-05-10T02:28:23;52.20;;;32.83;;
7957;SDS011;4024;52.172;5.378;2023-05-10T02:30:51;51.43;;;32.93;;
7957;SDS011;4024;52.172;5.378;2023-05-10T02:33:17;56.53;;;34.00;;
7957;SDS011;4024;52.172;5.378;2023-05-10T02:35:45;57.90;;;34.60;;
7957;SDS011;4024;52.172;5.378;2023-05-10T02:38:11;57.40;;;35.03;;
7957;SDS011;4024;52.172;5.378;2023-05-10T02:40:39;56.17;;;35.43;;
7957;SDS011;4024;52.172;5.378;2023-05-10T02:43:07;53.97;;;32.93;;
7957;SDS011;4024;52.172;5.378;2023-05-10T02:45:37;61.50;;;36.23;;
7957;SDS011;4024;52.172;5.378;2023-05-10T02:48:05;57.77;;;35.53;;
7957;SDS011;4024;52.172;5.378;2023-05-10T02:50:31;59.93;;;35.60;;
7957;SDS011;4024;52.172;5.378;2023-05-10T02:53:02;57.60;;;35.70;;
7957;SDS011;4024;52.172;5.378;2023-05-10T02:55:38;61.10;;;36.77;;
7957;SDS011;4024;52.172;5.378;2023-05-10T02:58:06;61.57;;;36.60;;
7957;SDS011;4024;52.172;5.378;2023-05-10T03:00:32;66.03;;;38.37;;
7957;SDS011;4024;52.172;5.378;2023-05-10T03:02:58;61.87;;;38.37;;
7957;SDS011;4024;52.172;5.378;2023-05-10T03:05:23;62.00;;;36.07;;
7957;SDS011;4024;52.172;5.378;2023-05-10T03:07:49;64.57;;;37.50;;
7957;SDS011;4024;52.172;5.378;2023-05-10T03:10:16;62.30;;;35.20;;
7957;SDS011;4024;52.172;5.378;2023-05-10T03:21:30;62.27;;;35.27;;
7957;SDS011;4024;52.172;5.378;2023-05-10T03:23:58;62.70;;;34.63;;
7957;SDS011;4024;52.172;5.378;2023-05-10T03:26:27;69.87;;;36.93;;
7957;SDS011;4024;52.172;5.378;2023-05-10T03:28:54;70.90;;;36.30;;
7957;SDS011;4024;52.172;5.378;2023-05-10T03:31:21;63.27;;;36.13;;
7957;SDS011;4024;52.172;5.378;2023-05-10T03:33:47;70.87;;;37.30;;
7957;SDS011;4024;52.172;5.378;2023-05-10T03:36:13;66.80;;;38.00;;
7957;SDS011;4024;52.172;5.378;2023-05-10T03:38:39;76.10;;;38.53;;
7957;SDS011;4024;52.172;5.378;2023-05-10T03:41:04;69.40;;;37.67;;
7957;SDS011;4024;52.172;5.378;2023-05-10T03:43:31;72.60;;;39.17;;
7957;SDS011;4024;52.172;5.378;2023-05-10T03:45:57;71.97;;;37.50;;
7957;SDS011;4024;52.172;5.378;2023-05-10T03:48:22;69.27;;;37.93;;
7957;SDS011;4024;52.172;5.378;2023-05-10T03:50:48;73.80;;;38.67;;
7957;SDS011;4024;52.172;5.378;2023-05-10T03:53:14;69.63;;;39.17;;
7957;SDS011;4024;52.172;5.378;2023-05-10T03:55:40;69.97;;;37.87;;
7957;SDS011;4024;52.172;5.378;2023-05-10T03:58:06;70.33;;;37.67;;
7957;SDS011;4024;52.172;5.378;2023-05-10T04:00:32;76.03;;;39.97;;
7957;SDS011;4024;52.172;5.378;2023-05-10T04:02:58;78.70;;;40.10;;
7957;SDS011;4024;52.172;5.378;2023-05-10T04:05:24;73.50;;;39.13;;
7957;SDS011;4024;52.172;5.378;2023-05-10T04:07:49;73.30;;;40.63;;
7957;SDS011;4024;52.172;5.378;2023-05-10T04:10:16;76.90;;;41.33;;
7957;SDS011;4024;52.172;5.378;2023-05-10T04:12:41;73.10;;;39.87;;
7957;SDS011;4024;52.172;5.378;2023-05-10T04:15:07;72.17;;;40.03;;
7957;SDS011;4024;52.172;5.378;2023-05-10T04:17:33;74.63;;;39.37;;
7957;SDS011;4024;52.172;5.378;2023-05-10T04:19:59;78.13;;;39.67;;
7957;SDS011;4024;52.172;5.378;2023-05-10T04:22:24;71.53;;;39.90;;
7957;SDS011;4024;52.172;5.378;2023-05-10T04:24:50;80.43;;;40.40;;
7957;SDS011;4024;52.172;5.378;2023-05-10T04:27:15;76.47;;;39.23;;
7957;SDS011;4024;52.172;5.378;2023-05-10T04:29:41;76.60;;;39.80;;
7957;SDS011;4024;52.172;5.378;2023-05-10T04:32:07;78.70;;;40.63;;
7957;SDS011;4024;52.172;5.378;2023-05-10T04:34:35;69.20;;;37.33;;
7957;SDS011;4024;52.172;5.378;2023-05-10T04:37:01;64.73;;;35.97;;
7957;SDS011;4024;52.172;5.378;2023-05-10T04:39:26;68.37;;;36.53;;
7957;SDS011;4024;52.172;5.378;2023-05-10T04:41:52;75.53;;;39.13;;
7957;SDS011;4024;52.172;5.378;2023-05-10T04:44:18;68.10;;;37.97;;
7957;SDS011;4024;52.172;5.378;2023-05-10T04:46:43;67.60;;;37.53;;
7957;SDS011;4024;52.172;5.378;2023-05-10T04:49:09;67.77;;;38.77;;
7957;SDS011;4024;52.172;5.378;2023-05-10T04:51:34;61.87;;;36.13;;
7957;SDS011;4024;52.172;5.378;2023-05-10T04:54:00;66.13;;;37.00;;
7957;SDS011;4024;52.172;5.378;2023-05-10T04:56:25;66.63;;;35.47;;
7957;SDS011;4024;52.172;5.378;2023-05-10T04:58:51;58.80;;;35.23;;
7957;SDS011;4024;52.172;5.378;2023-05-10T05:01:16;65.90;;;35.97;;
7957;SDS011;4024;52.172;5.378;2023-05-10T05:03:42;67.60;;;38.20;;
7957;SDS011;4024;52.172;5.378;2023-05-10T05:06:08;68.57;;;38.00;;
7957;SDS011;4024;52.172;5.378;2023-05-10T05:08:33;74.17;;;38.27;;
7957;SDS011;4024;52.172;5.378;2023-05-10T05:10:59;69.53;;;37.70;;
7957;SDS011;4024;52.172;5.378;2023-05-10T05:13:24;69.80;;;38.30;;
7957;SDS011;4024;52.172;5.378;2023-05-10T05:15:50;64.83;;;36.93;;
7957;SDS011;4024;52.172;5.378;2023-05-10T05:18:15;72.27;;;36.93;;
7957;SDS011;4024;52.172;5.378;2023-05-10T05:20:41;64.73;;;37.17;;
7957;SDS011;4024;52.172;5.378;2023-05-10T05:23:07;63.87;;;34.63;;
7957;SDS011;4024;52.172;5.378;2023-05-10T05:25:32;59.47;;;34.63;;
7957;SDS011;4024;52.172;5.378;2023-05-10T05:27:58;64.93;;;35.73;;
7957;SDS011;4024;52.172;5.378;2023-05-10T05:30:23;59.47;;;34.17;;
7957;SDS011;4024;52.172;5.378;2023-05-10T05:32:49;63.37;;;34.97;;
7957;SDS011;4024;52.172;5.378;2023-05-10T05:35:14;61.77;;;33.27;;
7957;SDS011;4024;52.172;5.378;2023-05-10T05:37:40;60.70;;;35.20;;
7957;SDS011;4024;52.172;5.378;2023-05-10T05:40:05;64.20;;;33.73;;
7957;SDS011;4024;52.172;5.378;2023-05-10T05:42:31;53.63;;;31.63;;
7957;SDS011;4024;52.172;5.378;2023-05-10T05:44:57;50.00;;;30.07;;
7957;SDS011;4024;52.172;5.378;2023-05-10T05:47:23;51.40;;;31.97;;
7957;SDS011;4024;52.172;5.378;2023-05-10T05:49:49;50.73;;;31.03;;
7957;SDS011;4024;52.172;5.378;2023-05-10T05:52:15;58.93;;;34.07;;
7957;SDS011;4024;52.172;5.378;2023-05-10T05:54:40;48.70;;;29.53;;
7957;SDS011;4024;52.172;5.378;2023-05-10T05:57:06;56.13;;;32.03;;
7957;SDS011;4024;52.172;5.378;2023-05-10T05:59:32;52.43;;;31.00;;
7957;SDS011;4024;52.172;5.378;2023-05-10T06:01:58;62.27;;;33.07;;
7957;SDS011;4024;52.172;5.378;2023-05-10T06:04:23;48.90;;;32.97;;
7957;SDS011;4024;52.172;5.378;2023-05-10T06:06:49;47.87;;;30.77;;
7957;SDS011;4024;52.172;5.378;2023-05-10T06:09:14;48.87;;;30.07;;
7957;SDS011;4024;52.172;5.378;2023-05-10T06:11:40;40.83;;;26.90;;
7957;SDS011;4024;52.172;5.378;2023-05-10T06:14:06;37.17;;;23.67;;
7957;SDS011;4024;52.172;5.378;2023-05-10T06:16:33;38.00;;;23.23;;
7957;SDS011;4024;52.172;5.378;2023-05-10T06:18:59;35.67;;;23.83;;
7957;SDS011;4024;52.172;5.378;2023-05-10T06:21:25;34.37;;;21.37;;
7957;SDS011;4024;52.172;5.378;2023-05-10T06:23:50;36.27;;;22.57;;
7957;SDS011;4024;52.172;5.378;2023-05-10T06:26:16;34.00;;;22.00;;
7957;SDS011;4024;52.172;5.378;2023-05-10T06:28:42;36.17;;;21.87;;
7957;SDS011;4024;52.172;5.378;2023-05-10T06:31:07;33.23;;;22.30;;
7957;SDS011;4024;52.172;5.378;2023-05-10T06:33:33;32.47;;;21.70;;
7957;SDS011;4024;52.172;5.378;2023-05-10T06:35:59;31.03;;;20.43;;
7957;SDS011;4024;52.172;5.378;2023-05-10T06:38:24;28.20;;;19.70;;
7957;SDS011;4024;52.172;5.378;2023-05-10T06:40:50;26.77;;;18.87;;
7957;SDS011;4024;52.172;5.378;2023-05-10T06:43:16;25.87;;;18.13;;
7957;SDS011;4024;52.172;5.378;2023-05-10T06:45:42;24.40;;;17.27;;
7957;SDS011;4024;52.172;5.378;2023-05-10T06:48:07;24.53;;;16.23;;
7957;SDS011;4024;52.172;5.378;2023-05-10T06:50:33;21.73;;;15.67;;
7957;SDS011;4024;52.172;5.378;2023-05-10T06:52:59;21.97;;;14.63;;
7957;SDS011;4024;52.172;5.378;2023-05-10T06:55:25;23.13;;;15.60;;
7957;SDS011;4024;52.172;5.378;2023-05-10T06:57:51;22.70;;;15.77;;
7957;SDS011;4024;52.172;5.378;2023-05-10T07:00:17;21.57;;;14.07;;
7957;SDS011;4024;52.172;5.378;2023-05-10T07:02:43;22.57;;;13.90;;
7957;SDS011;4024;52.172;5.378;2023-05-10T07:05:09;20.03;;;14.40;;
7957;SDS011;4024;52.172;5.378;2023-05-10T07:07:34;20.90;;;14.70;;
7957;SDS011;4024;52.172;5.378;2023-05-10T07:10:00;23.80;;;14.67;;
7957;SDS011;4024;52.172;5.378;2023-05-10T07:12:26;21.87;;;15.40;;
7957;SDS011;4024;52.172;5.378;2023-05-10T07:14:52;23.73;;;14.93;;
7957;SDS011;4024;52.172;5.378;2023-05-10T07:17:18;22.07;;;13.97;;
7957;SDS011;4024;52.172;5.378;2023-05-10T07:19:43;22.40;;;14.17;;
7957;SDS011;4024;52.172;5.378;2023-05-10T07:22:09;19.43;;;14.23;;
7957;SDS011;4024;52.172;5.378;2023-05-10T07:24:35;21.67;;;14.50;;
7957;SDS011;4024;52.172;5.378;2023-05-10T07:27:01;23.30;;;15.73;;
7957;SDS011;4024;52.172;5.378;2023-05-10T07:29:26;22.13;;;14.00;;
7957;SDS011;4024;52.172;5.378;2023-05-10T07:31:52;21.23;;;15.07;;
7957;SDS011;4024;52.172;5.378;2023-05-10T07:34:18;20.63;;;15.10;;
7957;SDS011;4024;52.172;5.378;2023-05-10T07:36:43;24.03;;;16.43;;
7957;SDS011;4024;52.172;5.378;2023-05-10T07:39:09;26.60;;;17.03;;
7957;SDS011;4024;52.172;5.378;2023-05-10T07:41:35;22.43;;;16.47;;
7957;SDS011;4024;52.172;5.378;2023-05-10T07:44:02;23.83;;;16.93;;
7957;SDS011;4024;52.172;5.378;2023-05-10T07:46:28;20.73;;;14.83;;
7957;SDS011;4024;52.172;5.378;2023-05-10T07:48:54;18.63;;;14.57;;
7957;SDS011;4024;52.172;5.378;2023-05-10T07:51:20;21.63;;;14.53;;
7957;SDS011;4024;52.172;5.378;2023-05-10T07:53:46;17.60;;;13.50;;
7957;SDS011;4024;52.172;5.378;2023-05-10T07:56:24;18.57;;;12.60;;
7957;SDS011;4024;52.172;5.378;2023-05-10T07:58:54;18.00;;;12.73;;
7957;SDS011;4024;52.172;5.378;2023-05-10T08:01:23;16.87;;;12.73;;
7957;SDS011;4024;52.172;5.378;2023-05-10T08:03:48;18.80;;;13.40;;
7957;SDS011;4024;52.172;5.378;2023-05-10T08:06:16;18.10;;;12.83;;
7957;SDS011;4024;52.172;5.378;2023-05-10T08:08:42;16.10;;;12.83;;
7957;SDS011;4024;52.172;5.378;2023-05-10T08:11:10;15.93;;;12.00;;
7957;SDS011;4024;52.172;5.378;2023-05-10T08:13:36;20.97;;;13.43;;
7957;SDS011;4024;52.172;5.378;2023-05-10T08:16:01;18.07;;;12.97;;
7957;SDS011;4024;52.172;5.378;2023-05-10T08:18:27;17.03;;;13.47;;
7957;SDS011;4024;52.172;5.378;2023-05-10T08:20:53;17.50;;;13.07;;
7957;SDS011;4024;52.172;5.378;2023-05-10T08:23:18;16.87;;;13.00;;
7957;SDS011;4024;52.172;5.378;2023-05-10T08:25:44;20.57;;;13.50;;
7957;SDS011;4024;52.172;5.378;2023-05-10T08:28:09;15.50;;;13.27;;
7957;SDS011;4024;52.172;5.378;2023-05-10T08:30:35;17.00;;;12.90;;
7957;SDS011;4024;52.172;5.378;2023-05-10T08:33:01;20.07;;;13.97;;
7957;SDS011;4024;52.172;5.378;2023-05-10T08:35:26;19.47;;;14.33;;
7957;SDS011;4024;52.172;5.378;2023-05-10T08:37:52;19.57;;;14.00;;
7957;SDS011;4024;52.172;5.378;2023-05-10T08:40:18;18.37;;;14.47;;
7957;SDS011;4024;52.172;5.378;2023-05-10T08:42:47;22.20;;;14.80;;
7957;SDS011;4024;52.172;5.378;2023-05-10T08:45:19;19.10;;;14.43;;
7957;SDS011;4024;52.172;5.378;2023-05-10T08:47:48;20.97;;;15.03;;
7957;SDS011;4024;52.172;5.378;2023-05-10T08:50:14;19.20;;;14.37;;
7957;SDS011;4024;52.172;5.378;2023-05-10T08:52:41;17.23;;;14.03;;
7957;SDS011;4024;52.172;5.378;2023-05-10T08:55:07;17.03;;;14.07;;
7957;SDS011;4024;52.172;5.378;2023-05-10T08:57:32;17.97;;;13.43;;
7957;SDS011;4024;52.172;5.378;2023-05-10T08:59:59;16.10;;;11.60;;
7957;SDS011;4024;52.172;5.378;2023-05-10T09:02:26;14.73;;;10.43;;
7957;SDS011;4024;52.172;5.378;2023-05-10T09:04:52;11.13;;;8.97;;
7957;SDS011;4024;52.172;5.378;2023-05-10T09:07:17;13.03;;;9.67;;
7957;SDS011;4024;52.172;5.378;2023-05-10T09:09:44;14.67;;;10.03;;
7957;SDS011;4024;52.172;5.378;2023-05-10T09:12:11;13.63;;;9.63;;
7957;SDS011;4024;52.172;5.378;2023-05-10T09:14:40;11.10;;;8.73;;
7957;SDS011;4024;52.172;5.378;2023-05-10T09:17:06;8.77;;;7.10;;
7957;SDS011;4024;52.172;5.378;2023-05-10T09:19:32;7.07;;;6.33;;
7957;SDS011;4024;52.172;5.378;2023-05-10T09:21:58;9.53;;;6.87;;
7957;SDS011;4024;52.172;5.378;2023-05-10T09:24:25;6.53;;;5.63;;
7957;SDS011;4024;52.172;5.378;2023-05-10T09:26:54;6.27;;;5.43;;
7957;SDS011;4024;52.172;5.378;2023-05-10T09:29:23;7.43;;;4.63;;
7957;SDS011;4024;52.172;5.378;2023-05-10T09:31:49;4.83;;;4.00;;
7957;SDS011;4024;52.172;5.378;2023-05-10T09:34:34;5.43;;;4.87;;
7957;SDS011;4024;52.172;5.378;2023-05-10T09:37:04;7.33;;;5.17;;
7957;SDS011;4024;52.172;5.378;2023-05-10T09:39:31;5.97;;;5.07;;
7957;SDS011;4024;52.172;5.378;2023-05-10T09:42:04;5.60;;;4.60;;
7957;SDS011;4024;52.172;5.378;2023-05-10T09:44:32;6.33;;;5.00;;
7957;SDS011;4024;52.172;5.378;2023-05-10T09:46:58;5.83;;;5.20;;
7957;SDS011;4024;52.172;5.378;2023-05-10T09:49:24;6.03;;;5.20;;
7957;SDS011;4024;52.172;5.378;2023-05-10T09:51:59;6.73;;;5.90;;
7957;SDS011;4024;52.172;5.378;2023-05-10T09:54:29;6.40;;;5.30;;
7957;SDS011;4024;52.172;5.378;2023-05-10T09:56:55;8.53;;;6.20;;
7957;SDS011;4024;52.172;5.378;2023-05-10T09:59:20;9.67;;;6.60;;
7957;SDS011;4024;52.172;5.378;2023-05-10T10:01:53;9.83;;;7.43;;
7957;SDS011;4024;52.172;5.378;2023-05-10T10:04:20;8.80;;;7.50;;
7957;SDS011;4024;52.172;5.378;2023-05-10T10:06:46;9.00;;;7.67;;
7957;SDS011;4024;52.172;5.378;2023-05-10T10:09:22;8.43;;;7.53;;
7957;SDS011;4024;52.172;5.378;2023-05-10T10:11:49;8.90;;;7.80;;
7957;SDS011;4024;52.172;5.378;2023-05-10T10:14:16;10.07;;;7.57;;
7957;SDS011;4024;52.172;5.378;2023-05-10T10:16:45;9.23;;;7.97;;
7957;SDS011;4024;52.172;5.378;2023-05-10T10:19:11;10.93;;;8.20;;
7957;SDS011;4024;52.172;5.378;2023-05-10T10:21:37;10.63;;;8.40;;
7957;SDS011;4024;52.172;5.378;2023-05-10T10:24:03;9.53;;;7.57;;
7957;SDS011;4024;52.172;5.378;2023-05-10T10:26:30;9.60;;;8.10;;
7957;SDS011;4024;52.172;5.378;2023-05-10T10:29:10;10.23;;;7.97;;
7957;SDS011;4024;52.172;5.378;2023-05-10T10:31:57;11.17;;;7.60;;
7957;SDS011;4024;52.172;5.378;2023-05-10T10:34:44;10.23;;;7.60;;
7957;SDS011;4024;52.172;5.378;2023-05-10T10:37:10;9.50;;;7.80;;
7957;SDS011;4024;52.172;5.378;2023-05-10T10:39:36;9.40;;;7.40;;
7957;SDS011;4024;52.172;5.378;2023-05-10T10:42:02;9.53;;;8.17;;
7957;SDS011;4024;52.172;5.378;2023-05-10T10:52:14;11.43;;;8.47;;
7957;SDS011;4024;52.172;5.378;2023-05-10T10:57:52;8.20;;;6.57;;
7957;SDS011;4024;52.172;5.378;2023-05-10T11:08:09;10.77;;;7.33;;
7957;SDS011;4024;52.172;5.378;2023-05-10T11:11:02;8.80;;;7.57;;
7957;SDS011;4024;52.172;5.378;2023-05-10T11:16:11;9.87;;;7.43;;
7957;SDS011;4024;52.172;5.378;2023-05-10T11:21:29;9.03;;;7.83;;
7957;SDS011;4024;52.172;5.378;2023-05-10T11:23:56;7.83;;;7.03;;
7957;SDS011;4024;52.172;5.378;2023-05-10T11:26:31;7.97;;;7.03;;
7957;SDS011;4024;52.172;5.378;2023-05-10T11:28:59;8.40;;;6.97;;
7957;SDS011;4024;52.172;5.378;2023-05-10T11:31:26;8.23;;;6.83;;
7957;SDS011;4024;52.172;5.378;2023-05-10T11:33:53;9.57;;;6.70;;
7957;SDS011;4024;52.172;5.378;2023-05-10T11:36:21;6.80;;;6.10;;
7957;SDS011;4024;52.172;5.378;2023-05-10T11:39:00;7.17;;;6.07;;
7957;SDS011;4024;52.172;5.378;2023-05-10T11:41:27;7.43;;;6.23;;
7957;SDS011;4024;52.172;5.378;2023-05-10T11:43:54;8.17;;;6.07;;
7957;SDS011;4024;52.172;5.378;2023-05-10T11:46:21;10.93;;;6.10;;
7957;SDS011;4024;52.172;5.378;2023-05-10T11:48:52;7.07;;;6.33;;
7957;SDS011;4024;52.172;5.378;2023-05-10T11:51:20;6.53;;;5.43;;
7957;SDS011;4024;52.172;5.378;2023-05-10T11:53:47;6.50;;;5.00;;
7957;SDS011;4024;52.172;5.378;2023-05-10T11:56:12;7.80;;;5.60;;
7957;SDS011;4024;52.172;5.378;2023-05-10T11:58:38;8.73;;;5.93;;
7957;SDS011;4024;52.172;5.378;2023-05-10T12:01:05;7.47;;;4.93;;
7957;SDS011;4024;52.172;5.378;2023-05-10T12:03:32;8.20;;;5.47;;
7957;SDS011;4024;52.172;5.378;2023-05-10T12:05:59;7.83;;;5.47;;
7957;SDS011;4024;52.172;5.378;2023-05-10T12:08:26;7.50;;;5.70;;
7957;SDS011;4024;52.172;5.378;2023-05-10T12:10:53;7.43;;;5.70;;
7957;SDS011;4024;52.172;5.378;2023-05-10T12:13:29;6.83;;;5.67;;
7957;SDS011;4024;52.172;5.378;2023-05-10T12:15:57;8.93;;;5.63;;
7957;SDS011;4024;52.172;5.378;2023-05-10T12:18:23;5.97;;;5.03;;
7957;SDS011;4024;52.172;5.378;2023-05-10T12:20:51;7.00;;;5.23;;
7957;SDS011;4024;52.172;5.378;2023-05-10T12:23:18;6.30;;;4.77;;
7957;SDS011;4024;52.172;5.378;2023-05-10T12:25:45;7.40;;;5.17;;
7957;SDS011;4024;52.172;5.378;2023-05-10T12:28:10;6.20;;;4.60;;
7957;SDS011;4024;52.172;5.378;2023-05-10T12:30:36;7.67;;;5.00;;
7957;SDS011;4024;52.172;5.378;2023-05-10T12:33:12;5.97;;;4.83;;
7957;SDS011;4024;52.172;5.378;2023-05-10T12:35:47;5.53;;;4.47;;
7957;SDS011;4024;52.172;5.378;2023-05-10T12:38:29;7.80;;;4.40;;
7957;SDS011;4024;52.172;5.378;2023-05-10T12:40:59;3.97;;;3.53;;
7957;SDS011;4024;52.172;5.378;2023-05-10T12:43:29;3.67;;;3.30;;
7957;SDS011;4024;52.172;5.378;2023-05-10T12:45:55;3.20;;;2.90;;
7957;SDS011;4024;52.172;5.378;2023-05-10T12:48:22;3.30;;;3.00;;
7957;SDS011;4024;52.172;5.378;2023-05-10T12:50:47;3.40;;;3.00;;
7957;SDS011;4024;52.172;5.378;2023-05-10T12:53:14;4.20;;;3.00;;
7957;SDS011;4024;52.172;5.378;2023-05-10T12:55:43;3.90;;;3.27;;
7957;SDS011;4024;52.172;5.378;2023-05-10T12:58:09;4.33;;;2.50;;
7957;SDS011;4024;52.172;5.378;2023-05-10T13:00:35;3.27;;;2.60;;
7957;SDS011;4024;52.172;5.378;2023-05-10T13:03:03;2.83;;;2.53;;
7957;SDS011;4024;52.172;5.378;2023-05-10T13:05:32;3.00;;;2.70;;
7957;SDS011;4024;52.172;5.378;2023-05-10T13:08:02;3.47;;;2.70;;
7957;SDS011;4024;52.172;5.378;2023-05-10T13:10:31;3.07;;;2.60;;
7957;SDS011;4024;52.172;5.378;2023-05-10T13:12:57;3.90;;;2.90;;
7957;SDS011;4024;52.172;5.378;2023-05-10T13:15:23;4.33;;;2.50;;
7957;SDS011;4024;52.172;5.378;2023-05-10T13:17:49;4.10;;;3.03;;
7957;SDS011;4024;52.172;5.378;2023-05-10T13:20:15;3.00;;;2.70;;
7957;SDS011;4024;52.172;5.378;2023-05-10T13:22:41;5.53;;;3.70;;
7957;SDS011;4024;52.172;5.378;2023-05-10T13:25:08;10.10;;;6.53;;
7957;SDS011;4024;52.172;5.378;2023-05-10T13:27:33;12.07;;;8.70;;
7957;SDS011;4024;52.172;5.378;2023-05-10T13:29:59;10.83;;;8.67;;
7957;SDS011;4024;52.172;5.378;2023-05-10T13:32:25;12.73;;;8.83;;
7957;SDS011;4024;52.172;5.378;2023-05-10T13:34:51;9.93;;;7.40;;
7957;SDS011;4024;52.172;5.378;2023-05-10T13:37:16;9.43;;;7.33;;
7957;SDS011;4024;52.172;5.378;2023-05-10T13:39:42;12.10;;;7.93;;
7957;SDS011;4024;52.172;5.378;2023-05-10T13:42:08;14.23;;;7.90;;
7957;SDS011;4024;52.172;5.378;2023-05-10T13:44:33;12.63;;;9.20;;
7957;SDS011;4024;52.172;5.378;2023-05-10T13:46:59;12.07;;;8.87;;
7957;SDS011;4024;52.172;5.378;2023-05-10T13:49:25;12.40;;;9.27;;
7957;SDS011;4024;52.172;5.378;2023-05-10T13:51:50;12.93;;;9.20;;
7957;SDS011;4024;52.172;5.378;2023-05-10T13:54:17;11.47;;;8.97;;
7957;SDS011;4024;52.172;5.378;2023-05-10T13:56:44;15.03;;;9.80;;
7957;SDS011;4024;52.172;5.378;2023-05-10T13:59:12;14.83;;;9.87;;
7957;SDS011;4024;52.172;5.378;2023-05-10T14:01:39;12.07;;;9.30;;
7957;SDS011;4024;52.172;5.378;2023-05-10T14:04:06;12.13;;;9.03;;
7957;SDS011;4024;52.172;5.378;2023-05-10T14:06:33;12.47;;;9.63;;
7957;SDS011;4024;52.172;5.378;2023-05-10T14:08:59;9.73;;;7.53;;
7957;SDS011;4024;52.172;5.378;2023-05-10T14:11:25;12.43;;;9.00;;
7957;SDS011;4024;52.172;5.378;2023-05-10T14:13:51;10.37;;;8.10;;
7957;SDS011;4024;52.172;5.378;2023-05-10T14:16:16;10.53;;;8.13;;
7957;SDS011;4024;52.172;5.378;2023-05-10T14:18:42;10.23;;;7.97;;
7957;SDS011;4024;52.172;5.378;2023-05-10T14:21:08;10.10;;;7.57;;
7957;SDS011;4024;52.172;5.378;2023-05-10T14:23:33;13.57;;;8.73;;
7957;SDS011;4024;52.172;5.378;2023-05-10T14:25:59;9.63;;;7.77;;
7957;SDS011;4024;52.172;5.378;2023-05-10T14:28:25;11.10;;;7.93;;
7957;SDS011;4024;52.172;5.378;2023-05-10T14:30:51;10.87;;;8.40;;
7957;SDS011;4024;52.172;5.378;2023-05-10T14:33:16;11.73;;;8.67;;
7957;SDS011;4024;52.172;5.378;2023-05-10T14:35:42;12.37;;;8.93;;
7957;SDS011;4024;52.172;5.378;2023-05-10T14:38:08;12.27;;;8.13;;
7957;SDS011;4024;52.172;5.378;2023-05-10T14:40:33;10.73;;;8.20;;
7957;SDS011;4024;52.172;5.378;2023-05-10T14:43:00;12.40;;;9.37;;
7957;SDS011;4024;52.172;5.378;2023-05-10T14:45:25;10.53;;;8.17;;
7957;SDS011;4024;52.172;5.378;2023-05-10T14:47:51;14.33;;;9.17;;
7957;SDS011;4024;52.172;5.378;2023-05-10T14:50:17;11.53;;;8.60;;
7957;SDS011;4024;52.172;5.378;2023-05-10T14:52:43;15.80;;;9.43;;
7957;SDS011;4024;52.172;5.378;2023-05-10T14:55:09;11.33;;;9.53;;
7957;SDS011;4024;52.172;5.378;2023-05-10T14:57:34;11.73;;;9.23;;
7957;SDS011;4024;52.172;5.378;2023-05-10T15:00:02;11.20;;;8.83;;
7957;SDS011;4024;52.172;5.378;2023-05-10T15:02:28;12.53;;;9.20;;
7957;SDS011;4024;52.172;5.378;2023-05-10T15:04:55;10.70;;;8.83;;
7957;SDS011;4024;52.172;5.378;2023-05-10T15:07:24;10.87;;;8.40;;
7957;SDS011;4024;52.172;5.378;2023-05-10T15:09:51;13.30;;;9.20;;
7957;SDS011;4024;52.172;5.378;2023-05-10T15:12:17;11.20;;;8.60;;
7957;SDS011;4024;52.172;5.378;2023-05-10T15:14:43;9.80;;;8.27;;
7957;SDS011;4024;52.172;5.378;2023-05-10T15:17:09;12.87;;;9.23;;
7957;SDS011;4024;52.172;5.378;2023-05-10T15:19:35;11.67;;;8.73;;
7957;SDS011;4024;52.172;5.378;2023-05-10T15:22:01;9.97;;;8.33;;
7957;SDS011;4024;52.172;5.378;2023-05-10T15:24:33;13.03;;;8.13;;
7957;SDS011;4024;52.172;5.378;2023-05-10T15:26:59;11.83;;;8.30;;
7957;SDS011;4024;52.172;5.378;2023-05-10T15:29:25;11.57;;;8.80;;
7957;SDS011;4024;52.172;5.378;2023-05-10T15:31:51;11.50;;;8.23;;
7957;SDS011;4024;52.172;5.378;2023-05-10T15:34:18;11.93;;;7.93;;
7957;SDS011;4024;52.172;5.378;2023-05-10T15:36:44;10.13;;;7.70;;